createdAt,value
2018-07-02T00:00:05.727Z,0.00
2018-07-02T00:01:05.705Z,0.00
2018-07-02T00:02:05.705Z,0.00
2018-07-02T00:03:05.676Z,0.00
2018-07-02T00:04:05.664Z,0.00
2018-07-02T00:05:05.652Z,0.00
2018-07-02T00:06:05.634Z,0.00
2018-07-02T00:07:05.620Z,0.00
2018-07-02T00:08:05.613Z,0.00
2018-07-02T00:09:05.591Z,0.00
2018-07-02T00:10:05.577Z,0.00
2018-07-02T00:11:05.562Z,0.00
2018-07-02T00:12:05.558Z,0.00
2018-07-02T00:13:05.548Z,0.00
2018-07-02T00:14:05.520Z,0.00
2018-07-02T00:15:05.505Z,0.00
2018-07-02T00:16:05.489Z,0.00
2018-07-02T00:17:05.478Z,0.00
2018-07-02T00:18:05.460Z,0.00
2018-07-02T00:19:05.459Z,0.00
2018-07-02T00:20:05.439Z,0.00
2018-07-02T00:21:05.441Z,0.00
2018-07-02T00:22:05.406Z,0.00
2018-07-02T00:23:05.396Z,0.00
2018-07-02T00:24:05.374Z,0.00
2018-07-02T00:25:05.358Z,0.00
2018-07-02T00:26:05.345Z,0.00
2018-07-02T00:27:05.337Z,0.00
2018-07-02T00:28:05.316Z,0.00
2018-07-02T00:29:05.302Z,0.00
2018-07-02T00:30:05.286Z,0.00
2018-07-02T00:31:05.272Z,0.00
2018-07-02T00:32:05.263Z,0.00
2018-07-02T00:33:05.243Z,0.00
2018-07-02T00:34:05.228Z,0.00
2018-07-02T00:35:05.213Z,0.00
2018-07-02T00:36:05.197Z,0.00
2018-07-02T00:37:05.183Z,0.00
2018-07-02T00:38:05.170Z,0.00
2018-07-02T00:39:05.158Z,0.00
2018-07-02T00:40:05.139Z,0.00
2018-07-02T00:41:05.125Z,0.00
2018-07-02T00:42:05.110Z,0.00
2018-07-02T00:43:05.097Z,0.00
2018-07-02T00:44:05.080Z,0.00
2018-07-02T00:45:05.066Z,0.00
2018-07-02T00:46:05.053Z,0.00
2018-07-02T00:47:05.040Z,0.00
2018-07-02T00:48:05.023Z,0.00
2018-07-02T00:49:05.009Z,0.00
2018-07-02T00:50:04.993Z,0.00
2018-07-02T00:51:04.979Z,0.00
2018-07-02T00:52:04.971Z,0.00
2018-07-02T00:53:04.948Z,0.00
2018-07-02T00:54:04.936Z,0.00
2018-07-02T00:55:04.922Z,0.00
2018-07-02T00:56:04.906Z,0.00
2018-07-02T00:57:04.894Z,0.00
2018-07-02T00:58:04.883Z,0.00
2018-07-02T00:59:04.869Z,0.00
2018-07-02T01:00:04.854Z,0.00
2018-07-02T01:01:04.832Z,0.00
2018-07-02T01:02:04.818Z,0.00
2018-07-02T01:03:04.804Z,0.00
2018-07-02T01:04:04.787Z,0.00
2018-07-02T01:05:04.778Z,0.00
2018-07-02T01:06:04.757Z,0.00
2018-07-02T01:07:04.748Z,0.00
2018-07-02T01:08:04.731Z,0.00
2018-07-02T01:09:04.713Z,0.00
2018-07-02T01:10:04.703Z,0.00
2018-07-02T01:11:04.689Z,0.00
2018-07-02T01:12:04.677Z,0.00
2018-07-02T01:13:04.655Z,0.00
2018-07-02T01:14:04.639Z,0.00
2018-07-02T01:15:04.627Z,0.00
2018-07-02T01:16:04.610Z,0.00
2018-07-02T01:17:04.604Z,0.00
2018-07-02T01:18:04.581Z,0.00
2018-07-02T01:19:04.571Z,0.00
2018-07-02T01:20:04.556Z,0.00
2018-07-02T01:21:04.537Z,0.00
2018-07-02T01:22:04.522Z,0.00
2018-07-02T01:23:04.506Z,0.00
2018-07-02T01:24:04.492Z,0.00
2018-07-02T01:25:04.480Z,0.00
2018-07-02T01:26:04.465Z,0.00
2018-07-02T01:27:04.450Z,0.00
2018-07-02T01:28:04.430Z,0.00
2018-07-02T01:29:04.419Z,0.00
2018-07-02T01:30:04.400Z,0.00
2018-07-02T01:31:04.386Z,0.00
2018-07-02T01:32:04.371Z,0.00
2018-07-02T01:33:04.356Z,0.00
2018-07-02T01:34:04.345Z,0.00
2018-07-02T01:35:04.328Z,0.00
2018-07-02T01:36:04.310Z,0.00
2018-07-02T01:37:04.366Z,0.00
2018-07-02T01:38:04.283Z,0.00
2018-07-02T01:39:04.268Z,0.00
2018-07-02T01:40:04.259Z,0.00
2018-07-02T01:41:04.238Z,0.00
2018-07-02T01:42:04.228Z,0.00
2018-07-02T01:43:04.215Z,0.00
2018-07-02T01:44:04.189Z,0.00
2018-07-02T01:45:04.176Z,0.00
2018-07-02T01:46:04.169Z,0.00
2018-07-02T01:47:04.147Z,0.00
2018-07-02T01:48:04.149Z,0.00
2018-07-02T01:49:04.116Z,0.00
2018-07-02T01:50:04.103Z,0.00
2018-07-02T01:51:04.089Z,0.00
2018-07-02T01:52:04.073Z,0.00
2018-07-02T01:53:04.056Z,0.00
2018-07-02T01:54:04.042Z,0.00
2018-07-02T01:55:04.027Z,0.00
2018-07-02T01:56:04.010Z,0.00
2018-07-02T01:57:04.004Z,0.00
2018-07-02T01:58:03.985Z,0.00
2018-07-02T01:59:03.987Z,0.00
2018-07-02T02:00:03.952Z,0.00
2018-07-02T02:01:03.944Z,0.00
2018-07-02T02:02:03.934Z,0.00
2018-07-02T02:03:03.907Z,0.00
2018-07-02T02:04:03.892Z,0.00
2018-07-02T02:05:03.877Z,0.00
2018-07-02T02:06:03.862Z,0.00
2018-07-02T02:07:03.852Z,0.00
2018-07-02T02:08:03.833Z,0.00
2018-07-02T02:09:03.826Z,0.00
2018-07-02T02:10:03.816Z,0.00
2018-07-02T02:11:03.789Z,0.00
2018-07-02T02:12:03.781Z,0.00
2018-07-02T02:13:03.765Z,0.00
2018-07-02T02:14:03.743Z,0.00
2018-07-02T02:15:03.732Z,0.00
2018-07-02T02:16:03.712Z,0.00
2018-07-02T02:17:03.698Z,0.00
2018-07-02T02:18:03.697Z,0.00
2018-07-02T02:19:03.670Z,0.00
2018-07-02T02:20:03.653Z,0.00
2018-07-02T02:21:03.642Z,0.00
2018-07-02T02:22:03.625Z,0.00
2018-07-02T02:23:03.608Z,0.00
2018-07-02T02:24:03.593Z,0.00
2018-07-02T02:25:03.587Z,0.00
2018-07-02T02:26:03.573Z,0.00
2018-07-02T02:27:03.557Z,0.00
2018-07-02T02:28:03.533Z,0.00
2018-07-02T02:29:03.520Z,0.00
2018-07-02T02:30:03.504Z,0.00
2018-07-02T02:31:03.496Z,0.00
2018-07-02T02:32:03.473Z,0.00
2018-07-02T02:33:03.457Z,0.00
2018-07-02T02:34:03.450Z,0.00
2018-07-02T02:35:03.438Z,0.00
2018-07-02T02:36:03.412Z,0.00
2018-07-02T02:37:03.398Z,0.00
2018-07-02T02:38:03.398Z,0.00
2018-07-02T02:39:03.372Z,0.00
2018-07-02T02:40:03.360Z,0.00
2018-07-02T02:41:03.343Z,0.00
2018-07-02T02:42:03.324Z,0.00
2018-07-02T02:43:03.310Z,0.00
2018-07-02T02:44:03.293Z,0.00
2018-07-02T02:45:03.277Z,0.00
2018-07-02T02:46:03.266Z,0.00
2018-07-02T02:47:03.249Z,0.00
2018-07-02T02:48:03.232Z,0.00
2018-07-02T02:49:03.226Z,0.00
2018-07-02T02:50:03.201Z,0.00
2018-07-02T02:51:03.188Z,0.00
2018-07-02T02:52:03.169Z,0.00
2018-07-02T02:53:03.154Z,0.00
2018-07-02T02:54:03.141Z,0.00
2018-07-02T02:55:03.127Z,0.00
2018-07-02T02:56:03.116Z,0.00
2018-07-02T02:57:03.097Z,0.00
2018-07-02T02:58:03.087Z,0.00
2018-07-02T02:59:03.065Z,0.00
2018-07-02T03:00:03.052Z,0.00
2018-07-02T03:01:03.034Z,0.00
2018-07-02T03:02:03.019Z,5.63
2018-07-02T03:03:03.005Z,5.63
2018-07-02T03:04:02.988Z,5.63
2018-07-02T03:05:02.974Z,5.63
2018-07-02T03:06:03.057Z,5.63
2018-07-02T03:07:02.955Z,5.63
2018-07-02T03:08:02.928Z,5.63
2018-07-02T03:09:02.911Z,5.63
2018-07-02T03:10:02.900Z,5.63
2018-07-02T03:11:02.880Z,5.63
2018-07-02T03:12:02.868Z,11.25
2018-07-02T03:13:02.857Z,11.25
2018-07-02T03:14:02.835Z,11.25
2018-07-02T03:15:02.822Z,11.25
2018-07-02T03:16:02.804Z,11.25
2018-07-02T03:17:02.788Z,11.25
2018-07-02T03:18:02.777Z,16.88
2018-07-02T03:19:02.757Z,16.88
2018-07-02T03:20:02.743Z,16.88
2018-07-02T03:21:02.728Z,16.88
2018-07-02T03:22:02.714Z,16.88
2018-07-02T03:23:02.697Z,16.88
2018-07-02T03:24:02.688Z,22.50
2018-07-02T03:25:02.666Z,22.50
2018-07-02T03:26:02.651Z,22.50
2018-07-02T03:27:02.647Z,22.50
2018-07-02T03:28:02.621Z,22.50
2018-07-02T03:29:02.607Z,28.13
2018-07-02T03:30:02.601Z,28.13
2018-07-02T03:31:02.640Z,28.13
2018-07-02T03:32:02.557Z,28.13
2018-07-02T03:33:02.543Z,28.13
2018-07-02T03:34:02.527Z,33.75
2018-07-02T03:35:02.528Z,33.75
2018-07-02T03:36:02.498Z,33.75
2018-07-02T03:37:02.480Z,33.75
2018-07-02T03:38:02.466Z,39.38
2018-07-02T03:39:02.449Z,39.38
2018-07-02T03:40:02.435Z,39.38
2018-07-02T03:41:02.420Z,39.38
2018-07-02T03:42:02.404Z,45.00
2018-07-02T03:43:02.389Z,45.00
2018-07-02T03:44:02.374Z,45.00
2018-07-02T03:45:02.366Z,45.00
2018-07-02T03:46:02.358Z,50.63
2018-07-02T03:47:02.328Z,50.63
2018-07-02T03:48:02.312Z,50.63
2018-07-02T03:49:02.296Z,50.63
2018-07-02T03:50:02.287Z,50.63
2018-07-02T03:51:02.277Z,56.25
2018-07-02T03:52:02.309Z,56.25
2018-07-02T03:53:02.235Z,56.25
2018-07-02T03:54:02.219Z,56.25
2018-07-02T03:55:02.205Z,61.88
2018-07-02T03:56:02.187Z,61.88
2018-07-02T03:57:02.173Z,61.88
2018-07-02T03:58:02.156Z,61.88
2018-07-02T03:59:02.153Z,67.50
2018-07-02T04:00:02.131Z,67.50
2018-07-02T04:01:02.113Z,67.50
2018-07-02T04:02:02.096Z,67.50
2018-07-02T04:03:02.081Z,73.13
2018-07-02T04:04:02.068Z,73.13
2018-07-02T04:05:02.051Z,73.13
2018-07-02T04:06:02.042Z,73.13
2018-07-02T04:07:02.019Z,78.75
2018-07-02T04:08:02.035Z,78.75
2018-07-02T04:09:01.988Z,78.75
2018-07-02T04:10:01.973Z,78.75
2018-07-02T04:11:01.959Z,78.75
2018-07-02T04:12:02.001Z,84.38
2018-07-02T04:13:01.954Z,84.38
2018-07-02T04:14:01.911Z,84.38
2018-07-02T04:15:01.897Z,84.38
2018-07-02T04:16:01.886Z,90.00
2018-07-02T04:17:01.868Z,90.00
2018-07-02T04:18:01.851Z,90.00
2018-07-02T04:19:01.834Z,90.00
2018-07-02T04:20:01.822Z,90.00
2018-07-02T04:21:01.803Z,95.63
2018-07-02T04:22:01.797Z,95.63
2018-07-02T04:23:01.779Z,95.63
2018-07-02T04:24:01.755Z,95.63
2018-07-02T04:25:01.750Z,95.63
2018-07-02T04:26:01.742Z,101.25
2018-07-02T04:27:01.712Z,101.25
2018-07-02T04:28:01.696Z,101.25
2018-07-02T04:29:01.679Z,101.25
2018-07-02T04:30:01.664Z,101.25
2018-07-02T04:31:01.660Z,106.88
2018-07-02T04:32:01.732Z,106.88
2018-07-02T04:33:01.625Z,106.88
2018-07-02T04:34:01.601Z,106.88
2018-07-02T04:35:01.588Z,106.88
2018-07-02T04:36:01.570Z,112.50
2018-07-02T04:37:01.571Z,112.50
2018-07-02T04:38:01.540Z,112.50
2018-07-02T04:39:01.523Z,112.50
2018-07-02T04:40:01.508Z,112.50
2018-07-02T04:41:01.492Z,112.50
2018-07-02T04:42:01.478Z,118.13
2018-07-02T04:43:01.464Z,118.13
2018-07-02T04:44:01.446Z,118.13
2018-07-02T04:45:01.430Z,118.13
2018-07-02T04:46:01.415Z,118.13
2018-07-02T04:47:01.398Z,123.75
2018-07-02T04:48:01.384Z,123.75
2018-07-02T04:49:01.371Z,123.75
2018-07-02T04:50:01.352Z,123.75
2018-07-02T04:51:01.434Z,123.75
2018-07-02T04:52:01.320Z,129.38
2018-07-02T04:53:01.309Z,129.38
2018-07-02T04:54:01.300Z,129.38
2018-07-02T04:55:01.284Z,129.38
2018-07-02T04:56:01.271Z,129.38
2018-07-02T04:57:01.249Z,135.00
2018-07-02T04:58:01.243Z,135.00
2018-07-02T04:59:01.218Z,135.00
2018-07-02T05:00:01.197Z,135.00
2018-07-02T05:01:01.194Z,140.63
2018-07-02T05:02:01.178Z,140.63
2018-07-02T05:03:01.152Z,140.63
2018-07-02T05:04:01.135Z,140.63
2018-07-02T05:05:01.121Z,140.63
2018-07-02T05:06:01.106Z,146.25
2018-07-02T05:07:01.093Z,146.25
2018-07-02T05:08:01.074Z,146.25
2018-07-02T05:09:01.059Z,146.25
2018-07-02T05:10:01.050Z,146.25
2018-07-02T05:11:01.029Z,151.88
2018-07-02T05:12:01.013Z,151.88
2018-07-02T05:13:01.001Z,151.88
2018-07-02T05:14:00.982Z,151.88
2018-07-02T05:15:00.975Z,157.50
2018-07-02T05:16:00.953Z,157.50
2018-07-02T05:17:00.982Z,157.50
2018-07-02T05:18:00.921Z,157.50
2018-07-02T05:19:00.907Z,157.50
2018-07-02T05:20:00.899Z,157.50
2018-07-02T05:21:00.873Z,157.50
2018-07-02T05:22:00.861Z,163.13
2018-07-02T05:23:00.844Z,163.13
2018-07-02T05:24:00.835Z,168.75
2018-07-02T05:25:00.824Z,168.75
2018-07-02T05:26:00.797Z,168.75
2018-07-02T05:27:00.783Z,174.38
2018-07-02T05:28:00.765Z,174.38
2018-07-02T05:29:00.751Z,174.38
2018-07-02T05:30:00.736Z,174.38
2018-07-02T05:31:00.721Z,180.00
2018-07-02T05:32:00.705Z,185.63
2018-07-02T05:33:00.689Z,180.00
2018-07-02T05:34:00.775Z,180.00
2018-07-02T05:35:00.659Z,180.00
2018-07-02T05:36:00.643Z,185.63
2018-07-02T05:37:00.629Z,185.63
2018-07-02T05:38:00.614Z,191.25
2018-07-02T05:39:00.598Z,196.88
2018-07-02T05:40:00.583Z,202.50
2018-07-02T05:41:00.566Z,208.13
2018-07-02T05:42:00.553Z,225.00
2018-07-02T05:43:00.538Z,258.75
2018-07-02T05:44:00.529Z,450.00
2018-07-02T05:45:00.513Z,855.00
2018-07-02T05:46:00.493Z,1091.25
2018-07-02T05:47:00.486Z,1186.88
2018-07-02T05:48:00.460Z,1198.13
2018-07-02T05:49:00.454Z,1260.00
2018-07-02T05:50:00.441Z,1338.75
2018-07-02T05:51:00.417Z,1350.00
2018-07-02T05:52:00.403Z,1451.25
2018-07-02T05:53:00.402Z,1608.75
2018-07-02T05:54:00.388Z,1614.38
2018-07-02T05:55:00.367Z,1569.38
2018-07-02T05:56:00.354Z,1625.63
2018-07-02T05:57:00.341Z,1721.25
2018-07-02T05:58:00.330Z,1653.75
2018-07-02T05:59:00.320Z,1687.50
2018-07-02T06:00:00.310Z,1777.50
2018-07-02T06:01:00.310Z,1743.75
2018-07-02T06:02:00.289Z,1861.88
2018-07-02T06:03:00.278Z,1901.25
2018-07-02T06:04:00.273Z,1923.75
2018-07-02T06:05:00.306Z,2008.13
2018-07-02T06:06:00.303Z,2143.13
2018-07-02T06:07:00.242Z,2075.63
2018-07-02T06:08:00.311Z,2070.00
2018-07-02T06:09:00.232Z,2221.88
2018-07-02T06:10:00.224Z,2182.50
2018-07-02T06:11:00.212Z,2115.00
2018-07-02T06:12:00.203Z,2210.63
2018-07-02T06:13:00.209Z,2244.38
2018-07-02T06:14:00.200Z,2328.75
2018-07-02T06:15:00.194Z,2356.88
2018-07-02T06:16:00.179Z,2345.63
2018-07-02T06:17:00.171Z,2295.00
2018-07-02T06:18:00.168Z,2216.25
2018-07-02T06:19:00.162Z,2272.50
2018-07-02T06:20:00.155Z,2390.63
2018-07-02T06:21:00.151Z,2345.63
2018-07-02T06:22:00.168Z,2497.50
2018-07-02T06:23:00.149Z,2638.13
2018-07-02T06:24:00.138Z,2660.63
2018-07-02T06:25:00.133Z,2610.00
2018-07-02T06:26:00.139Z,2576.25
2018-07-02T06:27:00.142Z,2553.75
2018-07-02T06:28:00.125Z,2565.00
2018-07-02T06:29:00.117Z,2615.63
2018-07-02T06:30:00.118Z,2615.63
2018-07-02T06:31:00.117Z,2615.63
2018-07-02T06:32:00.114Z,2761.88
2018-07-02T06:33:00.102Z,2930.63
2018-07-02T06:34:00.110Z,2705.63
2018-07-02T06:35:00.102Z,2626.88
2018-07-02T06:36:00.093Z,2655.00
2018-07-02T06:37:00.239Z,2604.38
2018-07-02T06:38:00.091Z,2610.00
2018-07-02T06:39:00.085Z,2666.25
2018-07-02T06:40:00.084Z,2700.00
2018-07-02T06:41:00.089Z,2767.50
2018-07-02T06:42:00.102Z,2722.50
2018-07-02T06:43:00.094Z,2756.25
2018-07-02T06:44:00.075Z,2902.50
2018-07-02T06:45:00.080Z,2947.50
2018-07-02T06:46:00.080Z,2812.50
2018-07-02T06:47:00.070Z,2919.38
2018-07-02T06:48:00.073Z,2941.88
2018-07-02T06:49:00.070Z,2863.13
2018-07-02T06:50:00.071Z,2649.38
2018-07-02T06:51:00.068Z,2728.13
2018-07-02T06:52:00.077Z,2829.38
2018-07-02T06:53:00.121Z,2677.50
2018-07-02T06:54:00.067Z,2688.75
2018-07-02T06:55:00.072Z,2728.13
2018-07-02T06:56:00.067Z,2773.13
2018-07-02T06:57:00.075Z,2767.50
2018-07-02T06:58:00.071Z,2700.00
2018-07-02T06:59:00.071Z,2683.13
2018-07-02T07:00:00.072Z,2778.75
2018-07-02T07:01:00.096Z,2778.75
2018-07-02T07:02:00.072Z,2739.38
2018-07-02T07:03:00.123Z,2716.88
2018-07-02T07:04:00.073Z,2857.50
2018-07-02T07:05:00.078Z,3043.13
2018-07-02T07:06:00.077Z,3268.13
2018-07-02T07:07:00.078Z,3268.13
2018-07-02T07:08:00.080Z,3268.13
2018-07-02T07:09:00.083Z,2233.13
2018-07-02T07:10:00.083Z,2120.63
2018-07-02T07:11:00.085Z,1906.88
2018-07-02T07:12:00.094Z,3093.75
2018-07-02T07:13:00.095Z,3616.88
2018-07-02T07:14:00.088Z,3678.75
2018-07-02T07:15:00.099Z,3583.13
2018-07-02T07:16:00.091Z,3622.50
2018-07-02T07:17:00.101Z,3740.63
2018-07-02T07:18:00.093Z,3667.50
2018-07-02T07:19:00.095Z,3718.13
2018-07-02T07:20:00.095Z,3616.88
2018-07-02T07:21:00.096Z,3504.38
2018-07-02T07:22:00.098Z,3352.50
2018-07-02T07:23:00.098Z,3363.75
2018-07-02T07:24:00.100Z,3313.13
2018-07-02T07:25:00.102Z,3144.38
2018-07-02T07:26:00.113Z,3313.13
2018-07-02T07:27:00.113Z,3116.25
2018-07-02T07:28:00.110Z,2992.50
2018-07-02T07:29:00.106Z,3313.13
2018-07-02T07:30:00.129Z,3448.13
2018-07-02T07:31:00.120Z,3363.75
2018-07-02T07:32:00.116Z,3256.88
2018-07-02T07:33:00.113Z,3217.50
2018-07-02T07:34:00.116Z,3178.13
2018-07-02T07:35:00.117Z,3076.88
2018-07-02T07:36:00.136Z,3285.00
2018-07-02T07:37:00.122Z,3206.25
2018-07-02T07:38:00.122Z,2986.88
2018-07-02T07:39:00.125Z,2694.38
2018-07-02T07:40:00.133Z,1091.25
2018-07-02T07:41:00.130Z,2666.25
2018-07-02T07:42:00.134Z,1153.13
2018-07-02T07:43:00.153Z,534.38
2018-07-02T07:44:00.140Z,399.38
2018-07-02T07:45:00.140Z,405.00
2018-07-02T07:46:00.142Z,450.00
2018-07-02T07:47:00.142Z,466.88
2018-07-02T07:48:00.146Z,410.63
2018-07-02T07:49:00.138Z,388.13
2018-07-02T07:50:00.147Z,365.63
2018-07-02T07:51:00.148Z,360.00
2018-07-02T07:52:00.135Z,388.13
2018-07-02T07:53:00.152Z,1046.25
2018-07-02T07:54:00.130Z,731.25
2018-07-02T07:55:00.142Z,2655.00
2018-07-02T07:56:00.136Z,1080.00
2018-07-02T07:57:00.121Z,551.25
2018-07-02T07:58:00.120Z,500.63
2018-07-02T07:59:00.113Z,500.63
2018-07-02T08:00:00.117Z,500.63
2018-07-02T08:01:00.109Z,393.75
2018-07-02T08:02:00.100Z,573.75
2018-07-02T08:03:00.098Z,455.63
2018-07-02T08:04:00.094Z,461.25
2018-07-02T08:05:00.086Z,697.50
2018-07-02T08:06:00.081Z,483.75
2018-07-02T08:07:00.085Z,1237.50
2018-07-02T08:08:00.072Z,1164.38
2018-07-02T08:09:00.067Z,2328.75
2018-07-02T08:10:00.067Z,1080.00
2018-07-02T08:11:00.059Z,922.50
2018-07-02T08:12:00.054Z,2109.38
2018-07-02T08:13:00.048Z,2272.50
2018-07-02T08:14:00.060Z,534.38
2018-07-02T08:15:00.067Z,556.88
2018-07-02T08:16:00.033Z,489.38
2018-07-02T08:17:00.029Z,680.63
2018-07-02T08:18:00.031Z,646.88
2018-07-02T08:19:00.055Z,309.38
2018-07-02T08:20:00.019Z,292.50
2018-07-02T08:21:00.007Z,298.13
2018-07-02T08:22:00.010Z,326.25
2018-07-02T08:22:59.993Z,298.13
2018-07-02T08:24:00.009Z,303.75
2018-07-02T08:24:59.980Z,298.13
2018-07-02T08:25:59.981Z,438.75
2018-07-02T08:26:59.969Z,286.88
2018-07-02T08:27:59.973Z,320.63
2018-07-02T08:28:59.960Z,298.13
2018-07-02T08:29:59.956Z,303.75
2018-07-02T08:30:59.955Z,303.75
2018-07-02T08:31:59.942Z,298.13
2018-07-02T08:33:00.013Z,298.13
2018-07-02T08:33:59.930Z,376.88
2018-07-02T08:34:59.921Z,298.13
2018-07-02T08:35:59.910Z,320.63
2018-07-02T08:36:59.904Z,315.00
2018-07-02T08:37:59.897Z,303.75
2018-07-02T08:40:14.438Z,326.25
2018-07-02T08:42:24.333Z,961.88
2018-07-02T08:43:20.492Z,669.38
2018-07-02T08:51:06.638Z,331.88
2018-07-02T08:52:06.625Z,388.13
2018-07-02T08:53:06.611Z,646.88
2018-07-02T08:54:06.602Z,483.75
2018-07-02T08:55:06.603Z,376.88
2018-07-02T08:56:06.597Z,360.00
2018-07-02T08:57:06.584Z,438.75
2018-07-02T08:58:06.571Z,461.25
2018-07-02T08:59:06.560Z,382.50
2018-07-02T09:00:06.550Z,545.63
2018-07-02T09:01:06.552Z,1344.38
2018-07-02T09:02:06.533Z,1951.88
2018-07-02T09:03:06.524Z,1074.38
2018-07-02T09:04:06.537Z,810.00
2018-07-02T09:05:06.511Z,2182.50
2018-07-02T09:06:06.502Z,3830.63
2018-07-02T09:07:06.490Z,3521.25
2018-07-02T09:08:06.480Z,798.75
2018-07-02T09:09:06.484Z,3493.13
2018-07-02T09:10:06.467Z,2446.88
2018-07-02T09:11:06.473Z,736.88
2018-07-02T09:12:06.451Z,2081.25
2018-07-02T09:13:06.451Z,2958.75
2018-07-02T09:14:06.434Z,4111.88
2018-07-02T09:15:06.428Z,4443.75
2018-07-02T09:16:06.421Z,4207.50
2018-07-02T09:17:06.423Z,4545.00
2018-07-02T09:18:06.423Z,4567.50
2018-07-02T09:19:06.405Z,4376.25
2018-07-02T09:20:06.399Z,4168.13
2018-07-02T09:21:06.394Z,4365.00
2018-07-02T09:22:06.391Z,4657.50
2018-07-02T09:23:06.386Z,4578.75
2018-07-02T09:24:06.389Z,4601.25
2018-07-02T09:25:06.381Z,4798.13
2018-07-02T09:26:06.384Z,776.25
2018-07-02T09:27:06.376Z,4275.00
2018-07-02T09:28:06.385Z,1591.88
2018-07-02T09:29:06.371Z,922.50
2018-07-02T09:30:06.374Z,4179.38
2018-07-02T09:31:06.367Z,3031.88
2018-07-02T09:32:06.374Z,3459.38
2018-07-02T09:33:06.363Z,2587.50
2018-07-02T09:34:06.361Z,4477.50
2018-07-02T09:35:06.376Z,4432.50
2018-07-02T09:36:06.358Z,4398.75
2018-07-02T09:37:06.357Z,4286.25
2018-07-02T09:38:06.371Z,4297.50
2018-07-02T09:39:06.359Z,4567.50
2018-07-02T09:40:06.363Z,4511.25
2018-07-02T09:41:06.351Z,3493.13
2018-07-02T09:42:06.349Z,2626.88
2018-07-02T09:43:06.351Z,3065.63
2018-07-02T09:44:06.349Z,450.00
2018-07-02T09:45:06.348Z,3729.38
2018-07-02T09:46:06.349Z,826.88
2018-07-02T09:47:06.350Z,731.25
2018-07-02T09:48:06.347Z,703.13
2018-07-02T09:49:06.345Z,624.38
2018-07-02T09:50:06.346Z,725.63
2018-07-02T09:51:06.346Z,596.25
2018-07-02T09:52:06.351Z,1327.50
2018-07-02T09:53:06.394Z,511.88
2018-07-02T09:54:06.351Z,1018.13
2018-07-02T09:55:06.341Z,4601.25
2018-07-02T09:56:06.339Z,4612.50
2018-07-02T09:57:06.341Z,4471.88
2018-07-02T09:58:06.344Z,4601.25
2018-07-02T09:59:06.582Z,2424.38
2018-07-02T10:00:06.334Z,697.50
2018-07-02T10:01:06.351Z,4269.38
2018-07-02T10:02:06.333Z,3150.00
2018-07-02T10:03:06.334Z,2396.25
2018-07-02T10:04:06.331Z,1119.38
2018-07-02T10:05:06.333Z,4753.13
2018-07-02T10:06:06.331Z,4365.00
2018-07-02T10:07:06.331Z,691.88
2018-07-02T10:08:06.330Z,731.25
2018-07-02T10:09:06.345Z,832.50
2018-07-02T10:10:06.361Z,2345.63
2018-07-02T10:11:06.327Z,3847.50
2018-07-02T10:12:06.333Z,1164.38
2018-07-02T10:13:06.334Z,2778.75
2018-07-02T10:14:06.324Z,4826.25
2018-07-02T10:15:06.335Z,3093.75
2018-07-02T10:16:06.325Z,4786.88
2018-07-02T10:17:06.334Z,4612.50
2018-07-02T10:18:06.332Z,4663.13
2018-07-02T10:19:06.330Z,4983.75
2018-07-02T10:20:06.333Z,5045.63
2018-07-02T10:21:06.337Z,4905.00
2018-07-02T10:22:06.331Z,4921.88
2018-07-02T10:23:06.334Z,4995.00
2018-07-02T10:24:06.340Z,5197.50
2018-07-02T10:25:06.335Z,5113.13
2018-07-02T10:26:06.345Z,5214.38
2018-07-02T10:27:06.339Z,5096.25
2018-07-02T10:28:06.342Z,5236.88
2018-07-02T10:29:06.375Z,5085.00
2018-07-02T10:30:06.349Z,4702.50
2018-07-02T10:31:06.390Z,4781.25
2018-07-02T10:32:06.362Z,5124.38
2018-07-02T10:33:06.356Z,5371.88
2018-07-02T10:34:06.359Z,5242.50
2018-07-02T10:35:06.372Z,5096.25
2018-07-02T10:36:06.383Z,5270.63
2018-07-02T10:37:06.375Z,5287.50
2018-07-02T10:38:06.378Z,5090.63
2018-07-02T10:39:06.382Z,4781.25
2018-07-02T10:40:06.386Z,4561.88
2018-07-02T10:41:06.713Z,4691.25
2018-07-02T10:42:06.398Z,4899.38
2018-07-02T10:43:06.399Z,4933.13
2018-07-02T10:44:06.412Z,4786.88
2018-07-02T10:45:06.407Z,4865.63
2018-07-02T10:46:06.413Z,5017.50
2018-07-02T10:47:06.476Z,4702.50
2018-07-02T10:48:06.422Z,4674.38
2018-07-02T10:49:06.427Z,4696.88
2018-07-02T10:50:06.434Z,4781.25
2018-07-02T10:51:06.440Z,4854.38
2018-07-02T10:52:06.446Z,4719.38
2018-07-02T10:53:06.457Z,4882.50
2018-07-02T10:54:06.464Z,4893.75
2018-07-02T10:55:06.476Z,4860.00
2018-07-02T10:56:06.476Z,4837.50
2018-07-02T10:57:06.480Z,4753.13
2018-07-02T10:58:06.478Z,4674.38
2018-07-02T10:59:06.491Z,4820.63
2018-07-02T11:00:06.503Z,4921.88
2018-07-02T11:01:06.507Z,4899.38
2018-07-02T11:02:06.505Z,4612.50
2018-07-02T11:03:06.510Z,4831.88
2018-07-02T11:04:06.516Z,4837.50
2018-07-02T11:05:06.526Z,4083.75
2018-07-02T11:06:06.542Z,3886.88
2018-07-02T11:07:06.537Z,4556.25
2018-07-02T11:08:06.547Z,4916.25
2018-07-02T11:09:06.546Z,5056.88
2018-07-02T11:10:06.611Z,4775.63
2018-07-02T11:11:06.562Z,4494.38
2018-07-02T11:12:06.565Z,4865.63
2018-07-02T11:13:06.570Z,4860.00
2018-07-02T11:14:06.578Z,3954.38
2018-07-02T11:15:06.590Z,3043.13
2018-07-02T11:16:06.594Z,3346.88
2018-07-02T11:17:06.611Z,4336.88
2018-07-02T11:18:06.613Z,4713.75
2018-07-02T11:19:06.628Z,4876.88
2018-07-02T11:20:06.723Z,4815.00
2018-07-02T11:21:06.623Z,4674.38
2018-07-02T11:22:06.630Z,4477.50
2018-07-02T11:23:06.639Z,4460.63
2018-07-02T11:24:06.646Z,4516.88
2018-07-02T11:25:06.656Z,4623.75
2018-07-02T11:26:06.677Z,4320.00
2018-07-02T11:27:06.679Z,4117.50
2018-07-02T11:28:06.685Z,4140.00
2018-07-02T11:29:06.691Z,4331.25
2018-07-02T11:30:06.690Z,4370.63
2018-07-02T11:31:06.699Z,4308.75
2018-07-02T11:32:06.703Z,4263.75
2018-07-02T11:33:06.717Z,4275.00
2018-07-02T11:34:06.715Z,4308.75
2018-07-02T11:35:06.723Z,4314.38
2018-07-02T11:36:06.727Z,4393.13
2018-07-02T11:37:06.735Z,4185.00
2018-07-02T11:38:06.749Z,4005.00
2018-07-02T11:39:06.757Z,4246.88
2018-07-02T11:40:06.763Z,4252.50
2018-07-02T11:41:06.759Z,4111.88
2018-07-02T11:42:06.766Z,4173.75
2018-07-02T11:43:06.779Z,4140.00
2018-07-02T11:44:06.821Z,4342.50
2018-07-02T11:45:06.790Z,4246.88
2018-07-02T11:46:06.788Z,4168.13
2018-07-02T11:47:06.792Z,3195.00
2018-07-02T11:48:06.853Z,1040.63
2018-07-02T11:49:06.806Z,331.88
2018-07-02T11:50:06.812Z,298.13
2018-07-02T11:51:06.813Z,281.25
2018-07-02T11:52:06.818Z,275.63
2018-07-02T11:53:06.817Z,270.00
2018-07-02T11:54:06.818Z,264.38
2018-07-02T11:55:06.823Z,264.38
2018-07-02T11:56:06.824Z,258.75
2018-07-02T11:57:06.824Z,264.38
2018-07-02T11:58:06.826Z,253.13
2018-07-02T11:59:06.839Z,253.13
2018-07-02T12:00:06.824Z,253.13
2018-07-02T12:01:06.843Z,253.13
2018-07-02T12:02:06.831Z,253.13
2018-07-02T12:03:06.831Z,253.13
2018-07-02T12:04:06.850Z,247.50
2018-07-02T12:05:06.820Z,247.50
2018-07-02T12:06:06.824Z,247.50
2018-07-02T12:07:06.825Z,253.13
2018-07-02T12:08:06.812Z,247.50
2018-07-02T12:09:06.808Z,247.50
2018-07-02T12:10:06.804Z,253.13
2018-07-02T12:11:06.802Z,247.50
2018-07-02T12:12:06.804Z,247.50
2018-07-02T12:13:06.811Z,241.88
2018-07-02T12:14:06.788Z,247.50
2018-07-02T12:15:06.788Z,241.88
2018-07-02T12:16:06.780Z,241.88
2018-07-02T12:17:06.774Z,241.88
2018-07-02T12:18:06.769Z,241.88
2018-07-02T12:19:06.769Z,241.88
2018-07-02T12:20:06.758Z,236.25
2018-07-02T12:21:06.752Z,236.25
2018-07-02T12:22:06.748Z,236.25
2018-07-02T12:23:06.749Z,236.25
2018-07-02T12:24:06.736Z,236.25
2018-07-02T12:25:06.731Z,236.25
2018-07-02T12:26:06.797Z,236.25
2018-07-02T12:27:06.719Z,236.25
2018-07-02T12:28:06.711Z,236.25
2018-07-02T12:29:06.704Z,236.25
2018-07-02T12:30:06.700Z,236.25
2018-07-02T12:31:06.709Z,230.63
2018-07-02T12:32:06.693Z,230.63
2018-07-02T12:33:06.678Z,230.63
2018-07-02T12:34:06.679Z,230.63
2018-07-02T12:35:06.668Z,230.63
2018-07-02T12:36:06.663Z,230.63
2018-07-02T12:37:06.655Z,230.63
2018-07-02T12:38:06.651Z,230.63
2018-07-02T12:39:06.640Z,230.63
2018-07-02T12:40:06.631Z,230.63
2018-07-02T12:41:06.648Z,230.63
2018-07-02T12:42:06.619Z,225.00
2018-07-02T12:43:06.610Z,225.00